Time;durP1;ratioP1;P1;durP2;ratioP2;P2;SDS_P1;SDS_P2;PMS_P1;PMS_P2;Temp;Humidity;BMP_temperature;BMP_pressure;BME280_temperature;BME280_humidity;BME280_pressure;Samples;Min_cycle;Max_cycle;Signal;HPM_P1;HPM_P2
2021/11/03 00:00:25;;;;;;;0.00;0.00;;;10.90;84.00;;;;;;5054556;28;20051;-76
2021/11/03 00:02:50;;;;;;;0.00;0.00;;;10.90;84.10;;;;;;5054932;28;20033;-76
2021/11/03 00:05:17;;;;;;;0.00;0.00;;;10.90;84.10;;;;;;5054346;28;20036;-76
2021/11/03 00:07:44;;;;;;;0.00;0.00;;;10.90;84.10;;;;;;5053856;28;20021;-75
2021/11/03 00:10:12;;;;;;;0.00;0.00;;;10.90;84.20;;;;;;5054336;28;20052;-76
2021/11/03 00:12:40;;;;;;;0.00;0.00;;;11.00;84.30;;;;;;5054194;28;20025;-75
2021/11/03 00:15:06;;;;;;;0.00;0.00;;;11.00;84.20;;;;;;5054270;28;20103;-75
2021/11/03 00:17:32;;;;;;;0.00;0.00;;;11.00;84.30;;;;;;5069783;28;20025;-75
2021/11/03 00:19:58;;;;;;;0.00;0.00;;;11.00;84.40;;;;;;5054150;28;20462;-76
2021/11/03 00:22:24;;;;;;;0.00;0.00;;;11.00;84.50;;;;;;5053835;28;20025;-75
2021/11/03 00:24:50;;;;;;;0.00;0.00;;;11.00;84.50;;;;;;5054907;28;20457;-75
2021/11/03 00:27:16;;;;;;;0.00;0.00;;;11.00;84.50;;;;;;5053987;28;20096;-75
2021/11/03 00:29:42;;;;;;;0.00;0.00;;;11.00;84.50;;;;;;5053357;28;20025;-75
2021/11/03 00:32:10;;;;;;;0.00;0.00;;;11.10;84.60;;;;;;5054099;28;20549;-75
2021/11/03 00:34:36;;;;;;;0.00;0.00;;;11.10;84.60;;;;;;5054580;28;20108;-75
2021/11/03 00:37:02;;;;;;;0.00;0.00;;;11.10;84.50;;;;;;5053811;28;20393;-76
2021/11/03 00:39:28;;;;;;;0.00;0.00;;;11.10;84.50;;;;;;5054063;28;20055;-75
2021/11/03 00:41:55;;;;;;;0.00;0.00;;;11.20;84.50;;;;;;5053364;28;20056;-75
2021/11/03 00:44:22;;;;;;;0.00;0.00;;;11.20;84.40;;;;;;5054323;28;20029;-75
2021/11/03 00:46:48;;;;;;;0.00;0.00;;;11.30;84.30;;;;;;5054120;28;20358;-75
2021/11/03 00:49:15;;;;;;;0.00;0.00;;;11.30;84.30;;;;;;5053637;28;20082;-75
2021/11/03 00:51:41;;;;;;;0.00;0.00;;;11.30;84.30;;;;;;5069316;28;20067;-75
2021/11/03 00:54:07;;;;;;;0.00;0.00;;;11.30;84.20;;;;;;5053640;28;20498;-75
2021/11/03 00:56:33;;;;;;;0.00;0.00;;;11.40;84.30;;;;;;5053569;28;20401;-75
2021/11/03 00:58:58;;;;;;;0.00;0.00;;;11.40;84.20;;;;;;5054169;28;20025;-76
2021/11/03 01:01:24;;;;;;;0.00;0.00;;;11.40;84.00;;;;;;5053817;28;20115;-75
2021/11/03 01:03:50;;;;;;;0.00;0.00;;;11.40;83.80;;;;;;5053861;28;20021;-75
2021/11/03 01:06:16;;;;;;;0.00;0.00;;;11.40;83.90;;;;;;5053340;28;20032;-75
2021/11/03 01:08:42;;;;;;;0.00;0.00;;;11.40;84.00;;;;;;5053840;28;20397;-75
2021/11/03 01:11:08;;;;;;;0.00;0.00;;;11.30;83.90;;;;;;5053742;28;20466;-77
2021/11/03 01:13:34;;;;;;;0.00;0.00;;;11.40;84.20;;;;;;5069110;28;20434;-74
2021/11/03 01:16:00;;;;;;;0.00;0.00;;;11.30;84.10;;;;;;5053588;28;20029;-76
2021/11/03 01:18:29;;;;;;;0.00;0.00;;;11.30;84.10;;;;;;5053637;28;20029;-77
2021/11/03 01:20:56;;;;;;;0.00;0.00;;;11.30;84.10;;;;;;5053617;28;20453;-75
2021/11/03 01:23:23;;;;;;;0.00;0.00;;;11.30;84.20;;;;;;5053181;28;20040;-75
2021/11/03 01:25:50;;;;;;;0.00;0.00;;;11.30;84.20;;;;;;5054040;28;20074;-75
2021/11/03 01:28:17;;;;;;;0.00;0.00;;;11.30;84.30;;;;;;5054125;28;20396;-75
2021/11/03 01:30:45;;;;;;;0.00;0.00;;;11.30;84.30;;;;;;5053265;28;20036;-74
2021/11/03 01:33:12;;;;;;;0.00;0.00;;;11.40;84.40;;;;;;5068914;28;20029;-76
2021/11/03 01:35:38;;;;;;;0.00;0.00;;;11.40;84.20;;;;;;5069218;28;20055;-77
2021/11/03 01:38:04;;;;;;;0.00;0.00;;;11.40;84.20;;;;;;5053700;28;20021;-75
2021/11/03 01:40:35;;;;;;;0.00;0.00;;;11.40;84.30;;;;;;5053285;28;20392;-75
2021/11/03 01:43:01;;;;;;;0.00;0.00;;;11.40;84.20;;;;;;5053546;28;20029;-79
2021/11/03 01:45:29;;;;;;;0.00;0.00;;;11.40;84.20;;;;;;5053173;28;20029;-75
2021/11/03 01:48:01;;;;;;;0.00;0.00;;;11.40;84.10;;;;;;5052107;28;20021;-74
2021/11/03 01:50:33;;;;;;;0.00;0.00;;;11.40;84.10;;;;;;5053250;28;20029;-74
2021/11/03 01:53:20;;;;;;;0.00;0.00;;;11.40;84.00;;;;;;5053752;28;20040;-75
2021/11/03 01:55:57;;;;;;;0.00;0.00;;;11.50;84.00;;;;;;5057357;28;20035;-76
2021/11/03 01:58:28;;;;;;;0.00;0.00;;;11.40;83.90;;;;;;5055654;28;20029;-75
2021/11/03 02:00:56;;;;;;;0.00;0.00;;;11.40;84.10;;;;;;5055669;28;20492;-75
2021/11/03 02:03:26;;;;;;;0.00;0.00;;;11.40;84.10;;;;;;5057245;28;20053;-75
2021/11/03 02:06:02;;;;;;;0.00;0.00;;;11.40;84.20;;;;;;5072163;28;20033;-76
2021/11/03 02:08:30;;;;;;;0.00;0.00;;;11.50;84.20;;;;;;5057326;28;20053;-74
2021/11/03 02:10:56;;;;;;;0.00;0.00;;;11.50;84.30;;;;;;5057383;28;20091;-75
2021/11/03 02:13:22;;;;;;;0.00;0.00;;;11.50;84.20;;;;;;5056734;28;20021;-75
2021/11/03 02:15:48;;;;;;;0.00;0.00;;;11.50;84.10;;;;;;5056381;28;20492;-76
2021/11/03 02:18:18;;;;;;;0.00;0.00;;;11.50;84.00;;;;;;5056628;28;20378;-75
2021/11/03 02:20:47;;;;;;;0.00;0.00;;;11.50;84.00;;;;;;5056991;28;20025;-75
2021/11/03 02:23:31;;;;;;;0.00;0.00;;;11.50;84.10;;;;;;5057146;28;20075;-76
2021/11/03 02:26:05;;;;;;;0.00;0.00;;;11.50;84.10;;;;;;5056565;28;20091;-77
2021/11/03 02:28:31;;;;;;;;;;;11.50;84.20;;;;;;5056548;28;20050;-76
2021/11/03 02:30:58;;;;;;;0.00;0.00;;;11.50;84.50;;;;;;5056234;28;19904;-75
2021/11/03 02:33:25;;;;;;;0.00;0.00;;;11.60;84.40;;;;;;5056580;28;20029;-76
2021/11/03 02:35:56;;;;;;;0.00;0.00;;;11.60;84.50;;;;;;5056896;28;20116;-75
2021/11/03 02:38:35;;;;;;;0.00;0.00;;;11.60;84.70;;;;;;5071318;28;20028;-75
2021/11/03 02:41:25;;;;;;;0.00;0.00;;;11.70;84.40;;;;;;5056072;28;20025;-74
2021/11/03 02:44:13;;;;;;;0.00;0.00;;;11.70;84.20;;;;;;5056765;28;20056;-75
2021/11/03 02:46:39;;;;;;;0.00;0.00;;;11.80;84.10;;;;;;5056593;28;20041;-76
2021/11/03 02:49:05;;;;;;;0.00;0.00;;;11.70;83.90;;;;;;5055703;28;20025;-78
2021/11/03 02:51:36;;;;;;;0.00;0.00;;;11.80;84.00;;;;;;5056197;28;20021;-75
2021/11/03 02:54:07;;;;;;;0.00;0.00;;;11.80;84.40;;;;;;5056768;28;20028;-75
2021/11/03 02:56:37;;;;;;;0.00;0.00;;;11.70;83.90;;;;;;5072053;28;20484;-76
2021/11/03 02:59:04;;;;;;;0.00;0.00;;;11.70;84.70;;;;;;5055955;28;20029;-76
2021/11/03 03:01:37;;;;;;;0.00;0.00;;;11.70;84.00;;;;;;5055953;28;20473;-76
2021/11/03 03:04:07;;;;;;;0.00;0.00;;;11.70;84.00;;;;;;5055658;28;20031;-75
2021/11/03 03:06:33;;;;;;;0.00;0.00;;;11.70;84.10;;;;;;5054709;28;20052;-76
2021/11/03 03:09:00;;;;;;;0.00;0.00;;;11.80;84.20;;;;;;5055987;28;20060;-76
2021/11/03 03:11:29;;;;;;;0.00;0.00;;;11.80;84.20;;;;;;5055908;28;20025;-75
2021/11/03 03:13:55;;;;;;;0.00;0.00;;;11.80;84.30;;;;;;5055686;28;20031;-75
2021/11/03 03:16:22;;;;;;;0.00;0.00;;;11.80;85.00;;;;;;5055143;28;20037;-74
2021/11/03 03:18:48;;;;;;;0.00;0.00;;;11.80;84.30;;;;;;5055643;28;20087;-75
2021/11/03 03:21:16;;;;;;;0.00;0.00;;;11.80;84.20;;;;;;5055421;28;20115;-76
2021/11/03 03:23:43;;;;;;;0.00;0.00;;;11.80;84.30;;;;;;5055376;28;20041;-76
2021/11/03 03:26:12;;;;;;;0.25;0.00;;;11.80;84.50;;;;;;5070742;28;20036;-76
2021/11/03 03:28:38;;;;;;;0.13;0.00;;;11.80;84.50;;;;;;5055904;28;20017;-76
2021/11/03 03:31:10;;;;;;;0.00;0.00;;;11.80;84.60;;;;;;5055582;28;20035;-76
2021/11/03 03:33:36;;;;;;;0.00;0.00;;;11.80;84.40;;;;;;5055881;28;20028;-76
2021/11/03 03:36:04;;;;;;;0.00;0.00;;;11.80;84.40;;;;;;5055000;28;20541;-76
2021/11/03 03:38:30;;;;;;;0.00;0.00;;;11.80;84.40;;;;;;5053863;28;20029;-76
2021/11/03 03:40:56;;;;;;;0.00;0.00;;;11.90;84.60;;;;;;5055564;28;20028;-75
2021/11/03 03:43:21;;;;;;;0.00;0.00;;;11.90;84.60;;;;;;5055086;28;20029;-75
2021/11/03 03:45:47;;;;;;;0.00;0.00;;;11.90;84.40;;;;;;5055198;28;20095;-75
2021/11/03 03:48:13;;;;;;;0.00;0.00;;;11.90;84.30;;;;;;5055546;28;20047;-75
2021/11/03 03:50:39;;;;;;;0.00;0.00;;;11.90;84.30;;;;;;5054870;28;20029;-75
2021/11/03 03:53:05;;;;;;;0.00;0.00;;;11.90;84.40;;;;;;5054876;28;20040;-74
2021/11/03 03:55:31;;;;;;;0.00;0.00;;;11.90;84.30;;;;;;5055129;28;20072;-75
2021/11/03 03:57:57;;;;;;;0.00;0.00;;;11.90;84.40;;;;;;5054261;28;20056;-76
2021/11/03 04:00:23;;;;;;;0.00;0.00;;;11.90;84.30;;;;;;5054498;28;20028;-75
2021/11/03 04:02:52;;;;;;;0.00;0.00;;;11.90;84.40;;;;;;5054304;28;20035;-75
2021/11/03 04:05:19;;;;;;;0.00;0.00;;;12.00;84.40;;;;;;5070090;28;20036;-75
2021/11/03 04:07:44;;;;;;;0.00;0.00;;;11.90;84.20;;;;;;5054814;28;20025;-76
2021/11/03 04:10:12;;;;;;;0.00;0.00;;;11.90;84.10;;;;;;5054683;28;20029;-79
2021/11/03 04:12:39;;;;;;;0.00;0.00;;;11.90;84.30;;;;;;5054288;28;20487;-75
2021/11/03 04:15:06;;;;;;;0.00;0.00;;;11.90;84.20;;;;;;5070410;28;20021;-74
2021/11/03 04:17:31;;;;;;;0.00;0.00;;;11.80;84.20;;;;;;5053946;28;20035;-76
2021/11/03 04:19:57;;;;;;;0.00;0.00;;;11.80;84.40;;;;;;5053616;28;20021;-75
2021/11/03 04:22:23;;;;;;;0.00;0.00;;;11.80;84.60;;;;;;5054937;28;20036;-75
2021/11/03 04:24:49;;;;;;;0.00;0.00;;;11.70;84.60;;;;;;5055256;28;20049;-76
2021/11/03 04:27:14;;;;;;;0.00;0.00;;;11.70;84.80;;;;;;5054316;28;20099;-75
2021/11/03 04:29:40;;;;;;;0.00;0.00;;;11.80;84.80;;;;;;5054610;28;20059;-75
2021/11/03 04:32:06;;;;;;;0.00;0.00;;;11.80;85.00;;;;;;5054425;28;20454;-75
2021/11/03 04:34:32;;;;;;;0.00;0.00;;;11.80;84.90;;;;;;5054409;28;20021;-75
2021/11/03 04:36:58;;;;;;;0.00;0.00;;;11.80;84.80;;;;;;5070025;28;20110;-75
2021/11/03 04:39:24;;;;;;;0.00;0.00;;;11.80;84.90;;;;;;5052763;28;20051;-76
2021/11/03 04:41:50;;;;;;;0.00;0.00;;;11.80;85.00;;;;;;5054222;28;20028;-75
2021/11/03 04:44:16;;;;;;;0.00;0.00;;;11.80;85.10;;;;;;5053674;28;20025;-75
2021/11/03 04:46:42;;;;;;;0.00;0.00;;;11.80;85.00;;;;;;5054180;28;20347;-75
2021/11/03 04:49:08;;;;;;;0.00;0.00;;;11.80;85.10;;;;;;5053590;28;20436;-76
2021/11/03 04:51:34;;;;;;;0.00;0.00;;;11.80;85.00;;;;;;5053823;28;20112;-76
2021/11/03 04:53:59;;;;;;;0.00;0.00;;;11.80;85.20;;;;;;5053850;28;20081;-76
2021/11/03 04:56:25;;;;;;;0.00;0.00;;;11.80;85.30;;;;;;5053094;28;20029;-76
2021/11/03 04:58:52;;;;;;;0.00;0.00;;;11.80;85.50;;;;;;5053973;28;20078;-74
2021/11/03 05:01:21;;;;;;;0.00;0.00;;;11.80;85.60;;;;;;5053604;28;20025;-77
2021/11/03 05:03:48;;;;;;;0.00;0.00;;;11.90;85.70;;;;;;5054029;28;20029;-76
2021/11/03 05:06:16;;;;;;;0.00;0.00;;;11.90;85.50;;;;;;5053764;28;20033;-76
2021/11/03 05:08:42;;;;;;;0.00;0.00;;;11.90;85.60;;;;;;5069889;28;20090;-76
2021/11/03 05:11:08;;;;;;;0.00;0.00;;;11.90;85.60;;;;;;5069608;28;20037;-75
2021/11/03 05:13:34;;;;;;;0.00;0.00;;;12.00;85.60;;;;;;5053520;28;20032;-75
2021/11/03 05:16:01;;;;;;;0.00;0.00;;;12.00;85.60;;;;;;5053651;28;20041;-75
2021/11/03 05:18:27;;;;;;;0.00;0.00;;;12.10;85.40;;;;;;5053515;28;20021;-75
2021/11/03 05:20:53;;;;;;;0.00;0.00;;;12.10;85.20;;;;;;5053100;28;20029;-76
2021/11/03 05:23:24;;;;;;;0.00;0.00;;;12.10;85.20;;;;;;5053906;28;20081;-78
2021/11/03 05:25:51;;;;;;;0.00;0.00;;;12.10;85.30;;;;;;5053755;28;20033;-77
2021/11/03 05:28:17;;;;;;;0.00;0.00;;;12.20;85.20;;;;;;5054869;28;20381;-77
2021/11/03 05:30:42;;;;;;;0.00;0.00;;;12.20;85.10;;;;;;5057508;28;20028;-76
2021/11/03 05:33:08;;;;;;;0.00;0.00;;;12.20;85.00;;;;;;5072813;28;20457;-77
2021/11/03 05:35:34;;;;;;;0.00;0.00;;;12.20;85.00;;;;;;5057296;28;20033;-76
2021/11/03 05:38:00;;;;;;;0.00;0.00;;;12.20;85.00;;;;;;5056399;28;20028;-76
2021/11/03 05:40:27;;;;;;;0.00;0.00;;;12.20;85.00;;;;;;5056754;28;20025;-78
2021/11/03 05:42:53;;;;;;;0.00;0.00;;;12.20;85.00;;;;;;5057480;28;20029;-78
2021/11/03 05:45:20;;;;;;;0.00;0.00;;;12.30;85.00;;;;;;5057362;28;20381;-76
2021/11/03 05:47:46;;;;;;;0.00;0.00;;;12.30;85.10;;;;;;5072588;28;20021;-77
2021/11/03 05:50:17;;;;;;;0.00;0.00;;;12.30;84.90;;;;;;5072663;28;20519;-77
2021/11/03 05:52:43;;;;;;;0.00;0.00;;;12.30;85.00;;;;;;5073045;28;20540;-77
2021/11/03 05:55:10;;;;;;;0.00;0.00;;;12.40;84.90;;;;;;5073627;28;20061;-77
2021/11/03 05:57:36;;;;;;;0.00;0.00;;;12.40;85.00;;;;;;5057895;28;20376;-77
2021/11/03 06:00:16;;;;;;;0.00;0.00;;;12.40;84.90;;;;;;5057120;28;20025;-77
2021/11/03 06:02:42;;;;;;;0.00;0.00;;;12.40;84.80;;;;;;5057445;28;20032;-77
2021/11/03 06:05:10;;;;;;;0.00;0.00;;;12.40;84.90;;;;;;5056327;28;20174;-77
2021/11/03 06:07:39;;;;;;;0.00;0.00;;;12.40;84.90;;;;;;5056925;28;20033;-77
2021/11/03 06:10:06;;;;;;;0.00;0.00;;;12.40;85.00;;;;;;5057138;28;20465;-77
2021/11/03 06:12:32;;;;;;;0.00;0.00;;;12.40;85.10;;;;;;5056920;28;20342;-77
2021/11/03 06:14:58;;;;;;;0.10;0.00;;;12.50;85.30;;;;;;5056981;28;20032;-77
2021/11/03 06:17:23;;;;;;;0.00;0.00;;;12.60;85.20;;;;;;5057698;28;20467;-78
2021/11/03 06:19:49;;;;;;;0.00;0.00;;;12.60;85.00;;;;;;5056875;28;20445;-79
2021/11/03 06:22:15;;;;;;;0.00;0.00;;;12.60;85.10;;;;;;5056529;28;20027;-77
2021/11/03 06:24:42;;;;;;;0.00;0.00;;;12.60;84.90;;;;;;5057270;28;20056;-77
2021/11/03 06:27:08;;;;;;;0.00;0.00;;;12.60;84.80;;;;;;5055403;28;20068;-76
2021/11/03 06:29:34;;;;;;;0.00;0.00;;;12.60;84.80;;;;;;5056426;28;20029;-78
2021/11/03 06:32:00;;;;;;;0.00;0.00;;;12.60;84.80;;;;;;5056605;28;20430;-76
2021/11/03 06:34:26;;;;;;;0.00;0.00;;;12.60;84.90;;;;;;5056603;28;20029;-77
2021/11/03 06:36:52;;;;;;;0.00;0.00;;;12.60;85.00;;;;;;5056532;28;20360;-76
2021/11/03 06:39:18;;;;;;;0.00;0.00;;;12.60;85.00;;;;;;5055662;28;20083;-76
2021/11/03 06:41:45;;;;;;;0.00;0.00;;;12.60;85.00;;;;;;5055879;28;20074;-77
2021/11/03 06:44:11;;;;;;;0.00;0.00;;;12.60;85.00;;;;;;5056233;28;20413;-78
2021/11/03 06:46:37;;;;;;;0.00;0.00;;;12.70;85.20;;;;;;5056649;28;20113;-77
2021/11/03 06:49:03;;;;;;;0.00;0.00;;;12.70;85.30;;;;;;5056261;28;20028;-76
2021/11/03 06:51:29;;;;;;;0.00;0.00;;;12.80;85.10;;;;;;5056039;28;20029;-77
2021/11/03 06:53:55;;;;;;;0.00;0.00;;;12.80;84.80;;;;;;5057110;28;20032;-77
2021/11/03 06:56:21;;;;;;;0.05;0.00;;;12.90;84.90;;;;;;5056242;28;20025;-78
2021/11/03 06:58:47;;;;;;;0.00;0.00;;;12.90;85.10;;;;;;5055715;28;20029;-79
2021/11/03 07:01:12;;;;;;;0.00;0.00;;;13.00;84.80;;;;;;5056227;28;20029;-76
2021/11/03 07:03:40;;;;;;;0.00;0.00;;;13.00;84.60;;;;;;5054712;28;20025;-78
2021/11/03 07:06:07;;;;;;;0.00;0.00;;;13.00;84.50;;;;;;5054507;28;20060;-78
2021/11/03 07:08:33;;;;;;;0.00;0.00;;;13.00;84.40;;;;;;5055467;28;20025;-78
2021/11/03 07:11:00;;;;;;;0.00;0.00;;;13.00;84.30;;;;;;5055833;28;20082;-77
2021/11/03 07:13:28;;;;;;;0.00;0.00;;;13.00;84.50;;;;;;5056190;28;20028;-77
2021/11/03 07:15:54;;;;;;;0.00;0.00;;;13.00;84.60;;;;;;5055186;28;20036;-77
2021/11/03 07:18:23;;;;;;;0.00;0.00;;;13.00;84.60;;;;;;5053885;28;20017;-78
2021/11/03 07:20:49;;;;;;;0.00;0.00;;;13.00;84.30;;;;;;5055407;28;20029;-77
2021/11/03 07:23:21;;;;;;;0.00;0.00;;;13.00;84.50;;;;;;5055513;28;20427;-76
2021/11/03 07:25:47;;;;;;;0.00;0.00;;;13.00;84.80;;;;;;5055980;28;20033;-78
2021/11/03 07:28:14;;;;;;;0.00;0.00;;;13.00;84.80;;;;;;5055370;28;20032;-77
2021/11/03 07:30:42;;;;;;;0.03;0.03;;;13.00;84.90;;;;;;5055679;28;20021;-77
2021/11/03 07:33:10;;;;;;;0.00;0.00;;;13.00;84.50;;;;;;5055135;28;20025;-76
2021/11/03 07:35:36;;;;;;;0.00;0.00;;;13.00;84.70;;;;;;5055389;28;20051;-78
2021/11/03 07:38:04;;;;;;;0.00;0.00;;;13.00;84.90;;;;;;5054970;28;20021;-77
2021/11/03 07:40:36;;;;;;;0.00;0.00;;;13.00;84.90;;;;;;5055381;28;20031;-77
2021/11/03 07:43:03;;;;;;;0.00;0.00;;;13.00;85.10;;;;;;5055070;28;20442;-77
2021/11/03 07:45:31;;;;;;;0.00;0.00;;;13.00;85.00;;;;;;5054986;28;20119;-77
2021/11/03 07:47:58;;;;;;;0.00;0.00;;;13.10;85.10;;;;;;5055052;28;20040;-77
2021/11/03 07:50:27;;;;;;;0.00;0.00;;;13.10;85.00;;;;;;5054622;28;20067;-79
2021/11/03 07:52:53;;;;;;;0.00;0.00;;;13.10;85.60;;;;;;5054009;28;20370;-77
2021/11/03 07:55:19;;;;;;;0.00;0.00;;;13.10;84.90;;;;;;5054694;28;20043;-76
2021/11/03 07:57:45;;;;;;;0.00;0.00;;;13.20;84.80;;;;;;5070090;28;20036;-77
2021/11/03 08:00:21;;;;;;;0.00;0.00;;;13.10;84.60;;;;;;5054948;28;20365;-75
2021/11/03 08:02:47;;;;;;;0.00;0.00;;;13.10;84.90;;;;;;5055673;28;20028;-76
2021/11/03 08:05:13;;;;;;;0.00;0.00;;;13.10;85.10;;;;;;5055145;28;20047;-77
2021/11/03 08:07:39;;;;;;;0.00;0.00;;;13.20;85.40;;;;;;5055171;28;20032;-77
2021/11/03 08:10:11;;;;;;;0.00;0.00;;;13.20;85.30;;;;;;5070229;28;20032;-76
2021/11/03 08:12:36;;;;;;;0.00;0.00;;;13.20;85.40;;;;;;5055465;28;20025;-76
2021/11/03 08:15:03;;;;;;;0.00;0.00;;;13.30;85.50;;;;;;5054840;28;20489;-76
2021/11/03 08:17:29;;;;;;;0.00;0.00;;;13.30;85.30;;;;;;5054338;28;20032;-76
2021/11/03 08:19:57;;;;;;;0.00;0.00;;;13.30;85.60;;;;;;5054226;28;20021;-77
2021/11/03 08:22:24;;;;;;;0.00;0.00;;;13.40;85.50;;;;;;5054183;28;20049;-75
2021/11/03 08:24:54;;;;;;;0.00;0.00;;;13.50;85.40;;;;;;5054649;28;20080;-77
2021/11/03 08:27:22;;;;;;;0.00;0.00;;;13.50;85.30;;;;;;5053288;28;20032;-76
2021/11/03 08:29:50;;;;;;;0.00;0.00;;;13.60;84.90;;;;;;5054560;28;20096;-76
2021/11/03 08:32:19;;;;;;;0.00;0.00;;;13.60;84.80;;;;;;5054265;28;20437;-76
2021/11/03 08:34:45;;;;;;;0.00;0.00;;;13.60;84.80;;;;;;5054395;28;20484;-76
2021/11/03 08:37:17;;;;;;;0.00;0.00;;;13.60;84.60;;;;;;5054440;28;20029;-75
2021/11/03 08:39:46;;;;;;;0.00;0.00;;;13.60;84.60;;;;;;5053713;28;20104;-77
2021/11/03 08:42:12;;;;;;;0.00;0.00;;;13.60;84.50;;;;;;5069691;28;20025;-76
2021/11/03 08:44:40;;;;;;;0.00;0.00;;;13.70;84.30;;;;;;5054125;28;20044;-77
2021/11/03 08:47:10;;;;;;;0.00;0.00;;;13.60;83.90;;;;;;5054804;28;20361;-76
2021/11/03 08:49:36;;;;;;;0.00;0.00;;;13.60;84.30;;;;;;5054400;28;20405;-76
2021/11/03 08:52:04;;;;;;;0.00;0.00;;;13.60;84.30;;;;;;5054372;28;20025;-78
2021/11/03 08:54:32;;;;;;;0.00;0.00;;;13.50;83.90;;;;;;5054487;28;20116;-79
2021/11/03 08:56:58;;;;;;;0.00;0.00;;;13.50;84.10;;;;;;5054360;28;20461;-77
2021/11/03 08:59:24;;;;;;;0.00;0.00;;;13.50;84.40;;;;;;5053713;28;20036;-76
2021/11/03 09:01:50;;;;;;;0.00;0.00;;;13.50;84.60;;;;;;5053560;28;20025;-77
2021/11/03 09:04:16;;;;;;;0.00;0.00;;;13.50;84.50;;;;;;5053021;28;20454;-76
2021/11/03 09:06:41;;;;;;;0.00;0.00;;;13.50;84.70;;;;;;5054380;28;20453;-76
2021/11/03 09:09:07;;;;;;;0.00;0.00;;;13.50;85.00;;;;;;5053510;28;20103;-75
2021/11/03 09:11:33;;;;;;;0.00;0.00;;;13.70;85.20;;;;;;5054028;28;20056;-77
2021/11/03 09:14:00;;;;;;;0.00;0.00;;;13.80;84.80;;;;;;5053646;28;20388;-76
2021/11/03 09:16:26;;;;;;;0.00;0.00;;;13.80;84.70;;;;;;5054204;28;20037;-75
2021/11/03 09:18:52;;;;;;;0.00;0.00;;;13.90;84.60;;;;;;5053936;28;20033;-75
2021/11/03 09:21:18;;;;;;;0.00;0.00;;;13.90;84.10;;;;;;5052558;28;20078;-75
2021/11/03 09:23:45;;;;;;;0.00;0.00;;;13.90;83.80;;;;;;5052462;28;20405;-77
2021/11/03 09:26:12;;;;;;;0.00;0.00;;;13.90;83.70;;;;;;5054357;28;20033;-78
2021/11/03 09:28:40;;;;;;;0.00;0.00;;;13.80;84.00;;;;;;5053443;28;20082;-75
2021/11/03 09:31:08;;;;;;;0.10;0.00;;;13.80;84.00;;;;;;5053795;28;20386;-77
2021/11/03 09:33:36;;;;;;;0.00;0.00;;;13.80;84.00;;;;;;5053860;28;20025;-78
2021/11/03 09:36:04;;;;;;;0.00;0.00;;;13.70;83.80;;;;;;5053380;28;20385;-75
2021/11/03 09:38:34;;;;;;;0.00;0.00;;;13.70;84.00;;;;;;5054107;28;20484;-76
2021/11/03 09:41:02;;;;;;;0.00;0.00;;;13.60;84.20;;;;;;5054059;28;20373;-75
2021/11/03 09:43:39;;;;;;;0.00;0.00;;;13.70;84.50;;;;;;5053631;28;20048;-76
2021/11/03 09:46:45;;;;;;;0.00;0.00;;;13.70;84.50;;;;;;5053606;28;20058;-77
2021/11/03 09:49:24;;;;;;;0.00;0.00;;;13.70;84.50;;;;;;5053562;28;20090;-77
2021/11/03 09:51:54;;;;;;;0.00;0.00;;;13.70;84.60;;;;;;5053305;28;20032;-76
2021/11/03 09:54:24;;;;;;;0.00;0.00;;;13.70;84.70;;;;;;5053524;28;20021;-77
2021/11/03 09:57:07;;;;;;;0.00;0.00;;;13.70;84.70;;;;;;5053098;28;20385;-77
2021/11/03 10:00:02;;;;;;;0.00;0.00;;;13.70;84.80;;;;;;5053640;28;20369;-76
2021/11/03 10:02:46;;;;;;;0.00;0.00;;;13.80;84.80;;;;;;5016514;28;20046;-75
2021/11/03 10:05:41;;;;;;;0.00;0.00;;;13.80;84.50;;;;;;5052673;28;20377;-75
2021/11/03 10:08:15;;;;;;;0.00;0.00;;;13.80;85.00;;;;;;5053439;28;20032;-76
2021/11/03 10:10:49;;;;;;;0.00;0.00;;;13.80;84.60;;;;;;5053182;28;20029;-77
2021/11/03 10:13:22;;;;;;;0.08;0.08;;;13.80;84.40;;;;;;5053115;28;20037;-76
2021/11/03 10:15:52;;;;;;;0.00;0.00;;;13.80;84.30;;;;;;5056224;28;20036;-76
2021/11/03 10:18:21;;;;;;;0.00;0.00;;;13.80;84.30;;;;;;5056798;28;20028;-78
2021/11/03 10:21:17;;;;;;;0.00;0.00;;;13.90;84.70;;;;;;5055569;28;20018;-76
2021/11/03 10:23:55;;;;;;;0.00;0.00;;;13.90;84.80;;;;;;5038381;28;20041;-77
2021/11/03 10:26:22;;;;;;;0.00;0.00;;;14.00;84.60;;;;;;5056644;28;20037;-77
2021/11/03 10:28:52;;;;;;;0.00;0.00;;;14.00;84.50;;;;;;5071739;28;20048;-77
2021/11/03 10:31:40;;;;;;;0.00;0.00;;;14.10;84.10;;;;;;5056363;28;20036;-76
2021/11/03 10:34:22;;;;;;;0.00;0.00;;;14.10;84.00;;;;;;5071703;28;20079;-78
2021/11/03 10:37:18;;;;;;;0.00;0.00;;;14.10;83.80;;;;;;5072537;28;20084;-78
2021/11/03 10:39:58;;;;;;;0.00;0.00;;;14.10;83.70;;;;;;5056789;28;20029;-76
2021/11/03 10:42:30;;;;;;;0.00;0.00;;;14.10;83.80;;;;;;5056076;28;20021;-79
2021/11/03 10:45:23;;;;;;;0.00;0.00;;;14.20;84.00;;;;;;5056054;28;20025;-77
2021/11/03 10:48:10;;;;;;;0.00;0.00;;;14.20;83.50;;;;;;5056057;28;20025;-76
2021/11/03 10:50:56;;;;;;;0.00;0.00;;;14.30;83.40;;;;;;5055873;28;20401;-77
2021/11/03 10:53:25;;;;;;;0.00;0.00;;;14.30;83.60;;;;;;5056288;28;20075;-77
2021/11/03 10:56:17;;;;;;;0.00;0.00;;;14.30;83.50;;;;;;5055469;28;20086;-78
2021/11/03 10:58:55;;;;;;;0.00;0.00;;;14.30;83.60;;;;;;5053986;28;20052;-77
2021/11/03 11:01:44;;;;;;;0.00;0.00;;;14.30;83.80;;;;;;5056079;28;20021;-82
2021/11/03 11:04:31;;;;;;;0.00;0.00;;;14.40;83.80;;;;;;5057835;28;20025;-78
2021/11/03 11:07:25;;;;;;;0.00;0.00;;;14.60;83.50;;;;;;5056045;28;20036;-76
2021/11/03 11:10:15;;;;;;;0.00;0.00;;;14.70;83.00;;;;;;5055921;28;20104;-78
2021/11/03 11:13:04;;;;;;;0.00;0.00;;;14.70;82.60;;;;;;5055771;28;20385;-76
2021/11/03 11:15:44;;;;;;;0.00;0.00;;;14.70;82.30;;;;;;5071789;28;20090;-80
2021/11/03 11:18:48;;;;;;;0.00;0.00;;;14.80;82.50;;;;;;5054785;28;20029;-77
2021/11/03 11:21:33;;;;;;;0.00;0.00;;;14.90;82.20;;;;;;5054281;28;20021;-80
2021/11/03 11:24:08;;;;;;;0.00;0.00;;;15.00;81.70;;;;;;5055947;28;20045;-78
2021/11/03 11:26:37;;;;;;;;;;;14.90;81.30;;;;;;5055482;28;20043;-80
2021/11/03 11:29:05;;;;;;;0.00;0.00;;;15.00;81.60;;;;;;5055813;28;19951;-79
2021/11/03 11:31:47;;;;;;;0.00;0.00;;;15.00;81.50;;;;;;5057295;28;20020;-79
2021/11/03 11:34:38;;;;;;;0.00;0.00;;;15.00;81.40;;;;;;5057925;28;20033;-78
2021/11/03 11:39:58;;;;;;;0.00;0.00;;;15.00;81.40;;;;;;5045406;22;20085;-80
2021/11/03 11:42:54;;;;;;;0.00;0.00;;;15.00;81.60;;;;;;5015180;28;20489;-79
2021/11/03 11:45:26;;;;;;;0.00;0.00;;;15.10;81.60;;;;;;5031310;28;20396;-81
2021/11/03 11:51:23;;;;;;;0.00;0.00;;;15.30;81.10;;;;;;5014526;28;20041;-79
2021/11/03 11:53:52;;;;;;;0.00;0.00;;;15.40;80.90;;;;;;5014733;28;20030;-79
2021/11/03 11:56:25;;;;;;;0.00;0.00;;;15.40;80.90;;;;;;5014608;28;20469;-78
2021/11/03 11:58:54;;;;;;;0.00;0.00;;;15.40;80.60;;;;;;5029790;28;20108;-80
2021/11/03 12:01:32;;;;;;;0.00;0.00;;;15.50;80.40;;;;;;5014697;28;20112;-80
2021/11/03 12:03:57;;;;;;;0.00;0.00;;;15.60;80.20;;;;;;5014757;28;20026;-80
2021/11/03 12:06:44;;;;;;;0.00;0.00;;;15.60;80.10;;;;;;5014432;28;20040;-79
2021/11/03 12:09:50;;;;;;;0.00;0.00;;;15.70;79.90;;;;;;5013031;28;20068;-79
2021/11/03 12:12:21;;;;;;;0.00;0.00;;;15.80;79.70;;;;;;4998397;28;20037;-79
2021/11/03 12:14:57;;;;;;;0.00;0.00;;;15.80;79.40;;;;;;5014312;28;20116;-81
2021/11/03 12:17:56;;;;;;;0.00;0.00;;;15.80;79.10;;;;;;5014314;28;20033;-79
2021/11/03 12:20:24;;;;;;;0.00;0.00;;;15.80;78.80;;;;;;5014388;28;20022;-81
2021/11/03 12:22:57;;;;;;;0.00;0.00;;;15.80;78.50;;;;;;5013983;28;20022;-79
2021/11/03 12:25:44;;;;;;;0.00;0.00;;;15.80;78.40;;;;;;5013462;28;20136;-81
2021/11/03 12:28:10;;;;;;;0.00;0.00;;;15.80;78.40;;;;;;5012958;28;20030;-81
2021/11/03 12:30:44;;;;;;;0.00;0.00;;;15.80;78.30;;;;;;5014291;28;20034;-81
2021/11/03 12:33:14;;;;;;;0.00;0.00;;;15.70;77.90;;;;;;5014140;28;20026;-81
2021/11/03 12:35:40;;;;;;;0.00;0.00;;;15.70;78.00;;;;;;5014166;28;20022;-80
2021/11/03 12:38:11;;;;;;;0.00;0.00;;;15.50;78.10;;;;;;5013598;28;20034;-79
2021/11/03 12:40:37;;;;;;;0.00;0.00;;;15.50;78.40;;;;;;5014247;28;20030;-79
2021/11/03 12:43:10;;;;;;;0.10;0.00;;;15.40;78.60;;;;;;5013964;28;20033;-79
2021/11/03 12:45:52;;;;;;;0.00;0.00;;;15.30;78.50;;;;;;5013969;28;20030;-79
2021/11/03 12:48:26;;;;;;;0.00;0.00;;;15.30;78.50;;;;;;5028772;28;20051;-80
2021/11/03 12:50:52;;;;;;;0.05;0.00;;;15.30;78.80;;;;;;5013740;28;20080;-80
2021/11/03 12:53:27;;;;;;;0.00;0.00;;;15.30;78.80;;;;;;5013917;28;20033;-80
2021/11/03 12:55:55;;;;;;;0.00;0.00;;;15.20;78.90;;;;;;5013626;28;20030;-81
2021/11/03 12:58:35;;;;;;;0.05;0.00;;;15.20;79.10;;;;;;5013875;28;20465;-81
2021/11/03 13:01:04;;;;;;;0.00;0.00;;;15.10;79.30;;;;;;5014068;28;20474;-80
2021/11/03 13:03:33;;;;;;;0.00;0.00;;;15.10;79.20;;;;;;5029089;28;20037;-80
2021/11/03 13:06:00;;;;;;;0.00;0.00;;;15.10;79.50;;;;;;5010084;28;20478;-80
2021/11/03 13:08:37;;;;;;;0.00;0.00;;;15.10;79.70;;;;;;5001857;28;20473;-82